sensor_id;sensor_type;location;lat;lon;timestamp;pressure;altitude;pressure_sealevel;temperature;humidity
61880;BME280;47817;52.798;27.544;2023-07-20T00:00:34;1015.3;;;20.8;50.7
61880;BME280;47817;52.798;27.544;2023-07-20T00:05:52;1015.3;;;20.6;51.4
61880;BME280;47817;52.798;27.544;2023-07-20T00:10:12;1015.3;;;20.3;52.7
61880;BME280;47817;52.798;27.544;2023-07-20T00:15:38;1015.3;;;20.1;54
61880;BME280;47817;52.798;27.544;2023-07-20T00:20:38;1015.3;;;19.9;55
61880;BME280;47817;52.798;27.544;2023-07-20T00:25:54;1015.3;;;19.8;56
61880;BME280;47817;52.798;27.544;2023-07-20T00:30:54;1015.4;;;19.6;57
61880;BME280;47817;52.798;27.544;2023-07-20T00:35:18;1015.4;;;19.5;57.2
61880;BME280;47817;52.798;27.544;2023-07-20T00:40:54;1015.4;;;19.5;56.9
61880;BME280;47817;52.798;27.544;2023-07-20T00:45:26;1015.3;;;19.5;57.4
61880;BME280;47817;52.798;27.544;2023-07-20T00:50:06;1015.3;;;19.6;57.9
61880;BME280;47817;52.798;27.544;2023-07-20T00:55:38;1015.3;;;19.6;57.6
61880;BME280;47817;52.798;27.544;2023-07-20T01:00:34;1015.3;;;19.8;57.1
61880;BME280;47817;52.798;27.544;2023-07-20T01:05:48;1015.3;;;19.9;56.8
61880;BME280;47817;52.798;27.544;2023-07-20T01:10:33;1015.3;;;19.9;56.5
61880;BME280;47817;52.798;27.544;2023-07-20T01:15:56;1015.3;;;19.9;56.7
61880;BME280;47817;52.798;27.544;2023-07-20T01:20:34;1015.2;;;19.9;57
61880;BME280;47817;52.798;27.544;2023-07-20T01:25:58;1015.1;;;19.9;55.5
61880;BME280;47817;52.798;27.544;2023-07-20T01:30:16;1015.2;;;20;54.5
61880;BME280;47817;52.798;27.544;2023-07-20T01:35:54;1015.3;;;20;55.4
61880;BME280;47817;52.798;27.544;2023-07-20T01:40:46;1015.4;;;19.6;56.7
61880;BME280;47817;52.798;27.544;2023-07-20T01:45:38;1015.4;;;19.4;57.6
61880;BME280;47817;52.798;27.544;2023-07-20T01:50:06;1015.4;;;19.3;57.4
61880;BME280;47817;52.798;27.544;2023-07-20T01:55:06;1015.3;;;19.1;58.1
61880;BME280;47817;52.798;27.544;2023-07-20T02:00:54;1015.2;;;19;58.5
61880;BME280;47817;52.798;27.544;2023-07-20T02:05:30;1015.2;;;18.8;59.5
61880;BME280;47817;52.798;27.544;2023-07-20T02:10:26;1015.1;;;18.8;59.8
61880;BME280;47817;52.798;27.544;2023-07-20T02:15:54;1015.1;;;18.9;60.1
61880;BME280;47817;52.798;27.544;2023-07-20T02:20:54;1015.1;;;19;59.7
61880;BME280;47817;52.798;27.544;2023-07-20T02:25:30;1015.1;;;19.2;59.1
61880;BME280;47817;52.798;27.544;2023-07-20T02:30:12;1015;;;19.4;58.7
61880;BME280;47817;52.798;27.544;2023-07-20T02:35:46;1014.9;;;19.5;58.5
61880;BME280;47817;52.798;27.544;2023-07-20T02:40:28;1014.9;;;19.6;58.4
61880;BME280;47817;52.798;27.544;2023-07-20T02:45:24;1014.8;;;19.7;58.1
61880;BME280;47817;52.798;27.544;2023-07-20T02:50:12;1014.8;;;19.9;57.8
61880;BME280;47817;52.798;27.544;2023-07-20T02:55:54;1014.8;;;20;57.6
61880;BME280;47817;52.798;27.544;2023-07-20T03:00:06;1015;;;20.1;57.2
61880;BME280;47817;52.798;27.544;2023-07-20T03:05:06;1015.2;;;20;57.1
61880;BME280;47817;52.798;27.544;2023-07-20T03:10:54;1015.3;;;19.9;57.2
61880;BME280;47817;52.798;27.544;2023-07-20T03:15:28;1015.2;;;19.8;57.3
61880;BME280;47817;52.798;27.544;2023-07-20T03:20:54;1015.1;;;19.8;57.2
61880;BME280;47817;52.798;27.544;2023-07-20T03:25:12;1015.3;;;19.8;57.1
61880;BME280;47817;52.798;27.544;2023-07-20T03:30:12;1015.3;;;19.7;57.5
61880;BME280;47817;52.798;27.544;2023-07-20T03:35:20;1015.4;;;19.4;58.6
61880;BME280;47817;52.798;27.544;2023-07-20T03:40:38;1015.5;;;19.3;59.3
61880;BME280;47817;52.798;27.544;2023-07-20T03:45:06;1015.6;;;19.5;58.7
61880;BME280;47817;52.798;27.544;2023-07-20T03:50:34;1015.7;;;19.9;57.5
61880;BME280;47817;52.798;27.544;2023-07-20T03:55:20;1015.5;;;20.1;57
61880;BME280;47817;52.798;27.544;2023-07-20T04:00:06;1015.5;;;20.3;57.1
61880;BME280;47817;52.798;27.544;2023-07-20T04:05:12;1015.4;;;20.5;56.5
61880;BME280;47817;52.798;27.544;2023-07-20T04:10:54;1015.4;;;20.6;55.9
61880;BME280;47817;52.798;27.544;2023-07-20T04:15:54;1015.3;;;20.7;55.7
61880;BME280;47817;52.798;27.544;2023-07-20T04:20:20;1015.2;;;20.6;56.1
61880;BME280;47817;52.798;27.544;2023-07-20T04:25:34;1015;;;20.6;56.9
61880;BME280;47817;52.798;27.544;2023-07-20T04:30:54;1014.7;;;20.6;57.3
61880;BME280;47817;52.798;27.544;2023-07-20T04:35:06;1014.7;;;20.5;58.4
61880;BME280;47817;52.798;27.544;2023-07-20T04:40:12;1014.7;;;20.4;59.1
61880;BME280;47817;52.798;27.544;2023-07-20T04:45:14;1014.9;;;20.5;59.6
61880;BME280;47817;52.798;27.544;2023-07-20T04:50:54;1015.2;;;20.5;60.1
61880;BME280;47817;52.798;27.544;2023-07-20T04:55:08;1015.5;;;20.6;60
61880;BME280;47817;52.798;27.544;2023-07-20T05:00:06;1015.7;;;20.5;60.1
61880;BME280;47817;52.798;27.544;2023-07-20T05:05:52;1015.7;;;20.4;60.3
61880;BME280;47817;52.798;27.544;2023-07-20T05:10:06;1015.5;;;20.4;60.3
61880;BME280;47817;52.798;27.544;2023-07-20T05:15:38;1015.5;;;20.4;60.9
61880;BME280;47817;52.798;27.544;2023-07-20T05:20:38;1015.1;;;20.3;61.2
61880;BME280;47817;52.798;27.544;2023-07-20T05:25:34;1014.8;;;20.3;61.4
61880;BME280;47817;52.798;27.544;2023-07-20T05:30:33;1014.8;;;20.2;61.8
61880;BME280;47817;52.798;27.544;2023-07-20T05:35:38;1015.1;;;20.3;63
61880;BME280;47817;52.798;27.544;2023-07-20T05:40:40;1015.1;;;20.4;62.3
61880;BME280;47817;52.798;27.544;2023-07-20T05:45:12;1015;;;20.5;61.9
61880;BME280;47817;52.798;27.544;2023-07-20T05:50:54;1014.8;;;20.4;61.2
61880;BME280;47817;52.798;27.544;2023-07-20T05:55:54;1014.8;;;20.5;61.1
61880;BME280;47817;52.798;27.544;2023-07-20T06:00:54;1014.5;;;20.7;60.9
61880;BME280;47817;52.798;27.544;2023-07-20T06:05:46;1014.3;;;21;61.2
61880;BME280;47817;52.798;27.544;2023-07-20T06:10:52;1014.2;;;21.4;60.2
61880;BME280;47817;52.798;27.544;2023-07-20T06:15:28;1014.1;;;21.6;59.6
61880;BME280;47817;52.798;27.544;2023-07-20T06:20:06;1014.1;;;21.8;59.6
61880;BME280;47817;52.798;27.544;2023-07-20T06:25:54;1014;;;22;59.5
61880;BME280;47817;52.798;27.544;2023-07-20T06:30:36;1014;;;22.2;59
61880;BME280;47817;52.798;27.544;2023-07-20T06:35:12;1014.1;;;22;59
61880;BME280;47817;52.798;27.544;2023-07-20T06:40:54;1014.2;;;21.8;59.1
61880;BME280;47817;52.798;27.544;2023-07-20T06:45:54;1014.3;;;21.7;58.7
61880;BME280;47817;52.798;27.544;2023-07-20T06:50:06;1014.3;;;21.9;57.8
61880;BME280;47817;52.798;27.544;2023-07-20T06:55:12;1014.3;;;22.2;56.8
61880;BME280;47817;52.798;27.544;2023-07-20T07:00:46;1014.3;;;23;54.8
61880;BME280;47817;52.798;27.544;2023-07-20T07:05:46;1014.3;;;23.4;53.7
61880;BME280;47817;52.798;27.544;2023-07-20T07:10:26;1014.2;;;23.3;53.7
61880;BME280;47817;52.798;27.544;2023-07-20T07:15:18;1014.2;;;23.5;53.1
61880;BME280;47817;52.798;27.544;2023-07-20T07:20:06;1014.1;;;23.7;51.7
61880;BME280;47817;52.798;27.544;2023-07-20T07:25:24;1014.3;;;23.8;51.2
61880;BME280;47817;52.798;27.544;2023-07-20T07:30:30;1014.3;;;23.8;51.2
61880;BME280;47817;52.798;27.544;2023-07-20T07:35:54;1014.1;;;24;49.9
61880;BME280;47817;52.798;27.544;2023-07-20T07:40:34;1014.1;;;24;49.6
61880;BME280;47817;52.798;27.544;2023-07-20T07:45:54;1014.2;;;23.5;49.4
61880;BME280;47817;52.798;27.544;2023-07-20T07:50:12;1014.2;;;23.3;49.7
61880;BME280;47817;52.798;27.544;2023-07-20T07:55:12;1014.2;;;23.7;49.5
61880;BME280;47817;52.798;27.544;2023-07-20T08:00:06;1014.2;;;24.4;48.6
61880;BME280;47817;52.798;27.544;2023-07-20T08:05:06;1014.1;;;24.9;47.7
61880;BME280;47817;52.798;27.544;2023-07-20T08:10:26;1014;;;25.5;46.7
61880;BME280;47817;52.798;27.544;2023-07-20T08:15:34;1014;;;26.3;45
61880;BME280;47817;52.798;27.544;2023-07-20T08:20:34;1014.1;;;26.7;44.5
61880;BME280;47817;52.798;27.544;2023-07-20T08:25:18;1014.1;;;26.9;43.7
61880;BME280;47817;52.798;27.544;2023-07-20T08:30:06;1014.1;;;27;43.8
61880;BME280;47817;52.798;27.544;2023-07-20T08:35:54;1014.1;;;27.3;43.1
61880;BME280;47817;52.798;27.544;2023-07-20T08:40:54;1014;;;27.5;43.2
61880;BME280;47817;52.798;27.544;2023-07-20T08:45:27;1014;;;27.7;42.8
61880;BME280;47817;52.798;27.544;2023-07-20T08:50:28;1013.9;;;28.4;41.6
61880;BME280;47817;52.798;27.544;2023-07-20T08:55:55;1013.8;;;28.9;40.7
61880;BME280;47817;52.798;27.544;2023-07-20T09:00:12;1013.8;;;28.9;40.9
61880;BME280;47817;52.798;27.544;2023-07-20T09:05:12;1013.8;;;28.9;40.4
61880;BME280;47817;52.798;27.544;2023-07-20T09:10:36;1013.8;;;28.9;41
61880;BME280;47817;52.798;27.544;2023-07-20T09:15:52;1013.8;;;29.3;40.3
61880;BME280;47817;52.798;27.544;2023-07-20T09:20:44;1013.8;;;30;38.6
61880;BME280;47817;52.798;27.544;2023-07-20T09:25:18;1013.7;;;30;38.8
61880;BME280;47817;52.798;27.544;2023-07-20T09:30:53;1013.7;;;29.8;38.4
61880;BME280;47817;52.798;27.544;2023-07-20T09:35:26;1013.6;;;29.2;38.5
61880;BME280;47817;52.798;27.544;2023-07-20T09:40:06;1013.5;;;28.9;38.9
61880;BME280;47817;52.798;27.544;2023-07-20T09:45:14;1013.5;;;28.7;39.3
61880;BME280;47817;52.798;27.544;2023-07-20T09:50:32;1013.5;;;28.9;39.2
61880;BME280;47817;52.798;27.544;2023-07-20T09:55:43;1013.5;;;29;38.1
61880;BME280;47817;52.798;27.544;2023-07-20T10:00:08;1013.5;;;29.1;38.2
61880;BME280;47817;52.798;27.544;2023-07-20T10:05:54;1013.5;;;29.2;37
61880;BME280;47817;52.798;27.544;2023-07-20T10:10:26;1013.6;;;28.8;37.2
61880;BME280;47817;52.798;27.544;2023-07-20T10:16:01;1013.6;;;28.3;37.6
61880;BME280;47817;52.798;27.544;2023-07-20T10:20:30;1013.6;;;28;38.5
61880;BME280;47817;52.798;27.544;2023-07-20T10:25:54;1013.7;;;27.8;39.2
61880;BME280;47817;52.798;27.544;2023-07-20T10:30:54;1013.8;;;27.3;40.2
61880;BME280;47817;52.798;27.544;2023-07-20T10:35:50;1013.8;;;27;40.8
61880;BME280;47817;52.798;27.544;2023-07-20T10:40:23;1013.9;;;26.5;41.9
61880;BME280;47817;52.798;27.544;2023-07-20T10:45:12;1013.9;;;26.2;43.2
61880;BME280;47817;52.798;27.544;2023-07-20T10:51:26;1013.9;;;26.1;44.2
61880;BME280;47817;52.798;27.544;2023-07-20T10:55:36;1014;;;25.9;44.2
61880;BME280;47817;52.798;27.544;2023-07-20T11:00:07;1014;;;25.5;44.6
61880;BME280;47817;52.798;27.544;2023-07-20T11:05:40;1014.1;;;25.1;45.4
61880;BME280;47817;52.798;27.544;2023-07-20T11:11:13;1014.2;;;24.8;46.5
61880;BME280;47817;52.798;27.544;2023-07-20T11:15:24;1014.2;;;24.5;48
61880;BME280;47817;52.798;27.544;2023-07-20T11:20:38;1014;;;24.2;49.7
61880;BME280;47817;52.798;27.544;2023-07-20T11:25:54;1014;;;24.2;50.3
61880;BME280;47817;52.798;27.544;2023-07-20T11:30:50;1014.2;;;24.1;52
61880;BME280;47817;52.798;27.544;2023-07-20T11:35:46;1014.3;;;23.7;56.2
61880;BME280;47817;52.798;27.544;2023-07-20T11:40:12;1014.4;;;23.4;57.9
61880;BME280;47817;52.798;27.544;2023-07-20T11:45:06;1014.4;;;23.1;58.7
61880;BME280;47817;52.798;27.544;2023-07-20T11:50:24;1014.4;;;22.7;59.3
61880;BME280;47817;52.798;27.544;2023-07-20T11:55:07;1014.3;;;22.4;58.8
61880;BME280;47817;52.798;27.544;2023-07-20T12:00:54;1014.2;;;22.1;60.3
61880;BME280;47817;52.798;27.544;2023-07-20T12:05:34;1014.2;;;21.9;61.1
61880;BME280;47817;52.798;27.544;2023-07-20T12:10:54;1014.3;;;21.8;61.9
61880;BME280;47817;52.798;27.544;2023-07-20T12:15:13;1014.3;;;21.5;66.4
61880;BME280;47817;52.798;27.544;2023-07-20T12:20:11;1014.5;;;20.6;75.1
61880;BME280;47817;52.798;27.544;2023-07-20T12:25:06;1014.6;;;20;80.6
61880;BME280;47817;52.798;27.544;2023-07-20T12:30:30;1014.7;;;19.9;85.4
61880;BME280;47817;52.798;27.544;2023-07-20T12:35:10;1014.7;;;19.5;89.9
61880;BME280;47817;52.798;27.544;2023-07-20T12:40:33;1014.7;;;19.4;92.7
61880;BME280;47817;52.798;27.544;2023-07-20T12:45:34;1014.8;;;19.5;94.4
61880;BME280;47817;52.798;27.544;2023-07-20T12:50:18;1014.7;;;19.7;95.9
61880;BME280;47817;52.798;27.544;2023-07-20T12:55:12;1014.7;;;19.9;95.9
61880;BME280;47817;52.798;27.544;2023-07-20T13:00:54;1014.8;;;19.7;94.8
61880;BME280;47817;52.798;27.544;2023-07-20T13:05:54;1014.8;;;19.5;95.6
61880;BME280;47817;52.798;27.544;2023-07-20T13:10:12;1014.8;;;19.1;97.5
61880;BME280;47817;52.798;27.544;2023-07-20T13:15:29;1014.7;;;18.9;99.7
61880;BME280;47817;52.798;27.544;2023-07-20T13:20:54;1014.6;;;18.8;100
61880;BME280;47817;52.798;27.544;2023-07-20T13:25:26;1014.6;;;19;100
61880;BME280;47817;52.798;27.544;2023-07-20T13:30:18;1014.5;;;19.3;100
61880;BME280;47817;52.798;27.544;2023-07-20T13:35:38;1014.4;;;19.4;100
61880;BME280;47817;52.798;27.544;2023-07-20T13:40:52;1014.2;;;19.4;100
61880;BME280;47817;52.798;27.544;2023-07-20T13:45:54;1014.2;;;19.5;100
61880;BME280;47817;52.798;27.544;2023-07-20T13:50:18;1014;;;19.6;99.7
61880;BME280;47817;52.798;27.544;2023-07-20T13:55:54;1014;;;19.8;99.3
61880;BME280;47817;52.798;27.544;2023-07-20T14:00:12;1014;;;19.9;97.4
61880;BME280;47817;52.798;27.544;2023-07-20T14:05:12;1013.9;;;20.1;97.1
61880;BME280;47817;52.798;27.544;2023-07-20T14:10:38;1013.8;;;20.4;93.9
61880;BME280;47817;52.798;27.544;2023-07-20T14:15:54;1013.8;;;20.7;93.5
61880;BME280;47817;52.798;27.544;2023-07-20T14:20:46;1013.7;;;20.9;94.6
61880;BME280;47817;52.798;27.544;2023-07-20T14:25:14;1013.7;;;20.9;91.4
61880;BME280;47817;52.798;27.544;2023-07-20T14:30:54;1013.7;;;21;91.7
61880;BME280;47817;52.798;27.544;2023-07-20T14:35:26;1013.7;;;20.9;93.3
61880;BME280;47817;52.798;27.544;2023-07-20T14:40:54;1013.7;;;20.9;93.6
61880;BME280;47817;52.798;27.544;2023-07-20T14:45:06;1013.6;;;21;92.7
61880;BME280;47817;52.798;27.544;2023-07-20T14:50:54;1013.7;;;21;93.5
61880;BME280;47817;52.798;27.544;2023-07-20T14:55:46;1013.8;;;20.9;93.4
61880;BME280;47817;52.798;27.544;2023-07-20T15:00:32;1013.8;;;20.9;93.6
61880;BME280;47817;52.798;27.544;2023-07-20T15:05:06;1013.9;;;20.9;93.3
61880;BME280;47817;52.798;27.544;2023-07-20T15:10:32;1013.9;;;20.9;92.6
61880;BME280;47817;52.798;27.544;2023-07-20T15:15:46;1013.9;;;21;92.9
61880;BME280;47817;52.798;27.544;2023-07-20T15:20:14;1013.8;;;21;93.9
61880;BME280;47817;52.798;27.544;2023-07-20T15:25:54;1013.9;;;21.1;94
61880;BME280;47817;52.798;27.544;2023-07-20T15:30:38;1013.9;;;21.1;91.8
61880;BME280;47817;52.798;27.544;2023-07-20T15:35:54;1013.9;;;21.2;90.6
61880;BME280;47817;52.798;27.544;2023-07-20T15:40:06;1014;;;21.3;90.8
61880;BME280;47817;52.798;27.544;2023-07-20T15:45:07;1014;;;21.3;89.9
61880;BME280;47817;52.798;27.544;2023-07-20T15:50:54;1014.1;;;21.3;91
61880;BME280;47817;52.798;27.544;2023-07-20T15:55:52;1014.3;;;21.2;94
61880;BME280;47817;52.798;27.544;2023-07-20T16:00:10;1014.3;;;21.1;95.6
61880;BME280;47817;52.798;27.544;2023-07-20T16:05:06;1014.4;;;20.9;96.3
61880;BME280;47817;52.798;27.544;2023-07-20T16:10:06;1014.4;;;20.8;94.4
61880;BME280;47817;52.798;27.544;2023-07-20T16:15:12;1014.4;;;20.8;95.3
61880;BME280;47817;52.798;27.544;2023-07-20T16:20:07;1014.4;;;20.7;97
61880;BME280;47817;52.798;27.544;2023-07-20T16:25:54;1014.5;;;20.6;98.5
61880;BME280;47817;52.798;27.544;2023-07-20T16:30:34;1014.4;;;20.5;98.2
61880;BME280;47817;52.798;27.544;2023-07-20T16:35:54;1014.4;;;20.5;98.7
61880;BME280;47817;52.798;27.544;2023-07-20T16:40:12;1014.5;;;20.5;98.6
61880;BME280;47817;52.798;27.544;2023-07-20T16:45:06;1014.5;;;20.4;98.3
61880;BME280;47817;52.798;27.544;2023-07-20T16:50:12;1014.4;;;20.4;97.1
61880;BME280;47817;52.798;27.544;2023-07-20T16:55:06;1014.4;;;20.5;97.8
61880;BME280;47817;52.798;27.544;2023-07-20T17:00:26;1014.4;;;20.3;97.6
61880;BME280;47817;52.798;27.544;2023-07-20T17:05:35;1014.4;;;20.3;96.1
61880;BME280;47817;52.798;27.544;2023-07-20T17:10:35;1014.4;;;20.1;97.5
61880;BME280;47817;52.798;27.544;2023-07-20T17:15:06;1014.4;;;20;96.9
61880;BME280;47817;52.798;27.544;2023-07-20T17:20:08;1014.4;;;20;99.2
61880;BME280;47817;52.798;27.544;2023-07-20T17:25:54;1014.4;;;20;98
61880;BME280;47817;52.798;27.544;2023-07-20T17:30:58;1014.4;;;20;97
61880;BME280;47817;52.798;27.544;2023-07-20T17:35:26;1014.4;;;20.1;96.6
61880;BME280;47817;52.798;27.544;2023-07-20T17:40:34;1014.4;;;20.2;97.9
61880;BME280;47817;52.798;27.544;2023-07-20T17:45:34;1014.5;;;20;98.2
61880;BME280;47817;52.798;27.544;2023-07-20T17:50:07;1014.5;;;19.8;98.5
61880;BME280;47817;52.798;27.544;2023-07-20T17:55:28;1014.5;;;19.6;98.2
61880;BME280;47817;52.798;27.544;2023-07-20T18:00:38;1014.5;;;19.5;99.4
61880;BME280;47817;52.798;27.544;2023-07-20T18:05:54;1014.5;;;19.5;99.6
61880;BME280;47817;52.798;27.544;2023-07-20T18:11:01;1014.5;;;19.4;99.4
61880;BME280;47817;52.798;27.544;2023-07-20T18:15:12;1014.5;;;19.4;100
61880;BME280;47817;52.798;27.544;2023-07-20T18:20:54;1014.6;;;19.3;99.6
61880;BME280;47817;52.798;27.544;2023-07-20T18:25:06;1014.6;;;19.2;100
61880;BME280;47817;52.798;27.544;2023-07-20T18:30:06;1014.8;;;19;100
61880;BME280;47817;52.798;27.544;2023-07-20T18:35:39;1014.8;;;18.9;100
61880;BME280;47817;52.798;27.544;2023-07-20T18:40:34;1014.8;;;18.9;100
61880;BME280;47817;52.798;27.544;2023-07-20T18:45:46;1014.9;;;18.9;100
61880;BME280;47817;52.798;27.544;2023-07-20T18:50:38;1014.9;;;18.9;100
61880;BME280;47817;52.798;27.544;2023-07-20T18:55:06;1014.9;;;18.9;100
61880;BME280;47817;52.798;27.544;2023-07-20T19:00:13;1014.9;;;18.9;100
61880;BME280;47817;52.798;27.544;2023-07-20T19:05:54;1014.9;;;18.8;100
61880;BME280;47817;52.798;27.544;2023-07-20T19:10:32;1014.9;;;18.8;100
61880;BME280;47817;52.798;27.544;2023-07-20T19:15:26;1014.9;;;18.8;100
61880;BME280;47817;52.798;27.544;2023-07-20T19:20:54;1014.9;;;18.7;100
61880;BME280;47817;52.798;27.544;2023-07-20T19:25:54;1015;;;18.6;100
61880;BME280;47817;52.798;27.544;2023-07-20T19:30:30;1015;;;18.5;100
61880;BME280;47817;52.798;27.544;2023-07-20T19:35:38;1015;;;18.4;100
61880;BME280;47817;52.798;27.544;2023-07-20T19:40:14;1014.9;;;18.3;100
61880;BME280;47817;52.798;27.544;2023-07-20T19:45:46;1015;;;18.2;100
61880;BME280;47817;52.798;27.544;2023-07-20T19:50:26;1015;;;18.1;100
61880;BME280;47817;52.798;27.544;2023-07-20T19:55:06;1015;;;18;100
61880;BME280;47817;52.798;27.544;2023-07-20T20:00:54;1015;;;17.9;100
61880;BME280;47817;52.798;27.544;2023-07-20T20:05:12;1014.9;;;17.9;100
61880;BME280;47817;52.798;27.544;2023-07-20T20:10:06;1015;;;17.8;100
61880;BME280;47817;52.798;27.544;2023-07-20T20:15:54;1015.1;;;17.7;100
61880;BME280;47817;52.798;27.544;2023-07-20T20:20:46;1015.1;;;17.6;100
61880;BME280;47817;52.798;27.544;2023-07-20T20:25:20;1015.1;;;17.5;100
61880;BME280;47817;52.798;27.544;2023-07-20T20:30:54;1015.2;;;17.5;100
61880;BME280;47817;52.798;27.544;2023-07-20T20:35:06;1015.2;;;17.5;100
61880;BME280;47817;52.798;27.544;2023-07-20T20:40:12;1015.2;;;17.4;100
61880;BME280;47817;52.798;27.544;2023-07-20T20:45:32;1015.2;;;17.3;100
61880;BME280;47817;52.798;27.544;2023-07-20T20:50:54;1015.3;;;17.3;100
61880;BME280;47817;52.798;27.544;2023-07-20T20:55:34;1015.4;;;17.2;100
61880;BME280;47817;52.798;27.544;2023-07-20T21:00:57;1015.4;;;17.1;100
61880;BME280;47817;52.798;27.544;2023-07-20T21:05:18;1015.4;;;17.1;100
61880;BME280;47817;52.798;27.544;2023-07-20T21:10:12;1015.4;;;17.1;100
61880;BME280;47817;52.798;27.544;2023-07-20T21:15:07;1015.5;;;17.1;100
61880;BME280;47817;52.798;27.544;2023-07-20T21:20:30;1015.6;;;17.1;100
61880;BME280;47817;52.798;27.544;2023-07-20T21:25:26;1015.6;;;17.1;99.8
61880;BME280;47817;52.798;27.544;2023-07-20T21:30:34;1015.6;;;17;99.5
61880;BME280;47817;52.798;27.544;2023-07-20T21:35:35;1015.6;;;17;99.6
61880;BME280;47817;52.798;27.544;2023-07-20T21:40:18;1015.6;;;16.9;99.4
61880;BME280;47817;52.798;27.544;2023-07-20T21:45:07;1015.6;;;16.9;99.2
61880;BME280;47817;52.798;27.544;2023-07-20T21:50:52;1015.7;;;16.8;99
61880;BME280;47817;52.798;27.544;2023-07-20T21:55:32;1015.8;;;16.8;98.8
61880;BME280;47817;52.798;27.544;2023-07-20T22:00:26;1015.8;;;16.7;98.7
61880;BME280;47817;52.798;27.544;2023-07-20T22:05:34;1015.8;;;16.7;98.7
61880;BME280;47817;52.798;27.544;2023-07-20T22:10:34;1015.8;;;16.6;98.7
61880;BME280;47817;52.798;27.544;2023-07-20T22:15:26;1015.8;;;16.6;98.4
61880;BME280;47817;52.798;27.544;2023-07-20T22:20:09;1015.8;;;16.5;98.4
61880;BME280;47817;52.798;27.544;2023-07-20T22:25:38;1015.9;;;16.5;98.5
61880;BME280;47817;52.798;27.544;2023-07-20T22:30:56;1015.9;;;16.5;98.4
61880;BME280;47817;52.798;27.544;2023-07-20T22:35:54;1015.9;;;16.5;98.3
61880;BME280;47817;52.798;27.544;2023-07-20T22:40:18;1015.9;;;16.4;97.9
61880;BME280;47817;52.798;27.544;2023-07-20T22:45:54;1016;;;16.4;98
61880;BME280;47817;52.798;27.544;2023-07-20T22:50:12;1016;;;16.3;97.8
61880;BME280;47817;52.798;27.544;2023-07-20T22:55:54;1016;;;16.2;97.7
61880;BME280;47817;52.798;27.544;2023-07-20T23:00:30;1016;;;16.1;97.6
61880;BME280;47817;52.798;27.544;2023-07-20T23:05:54;1016.1;;;16.1;97.7
61880;BME280;47817;52.798;27.544;2023-07-20T23:10:46;1016.1;;;16.1;97.8
61880;BME280;47817;52.798;27.544;2023-07-20T23:15:54;1016.1;;;16;97.6
61880;BME280;47817;52.798;27.544;2023-07-20T23:20:12;1016.1;;;16;97.2
61880;BME280;47817;52.798;27.544;2023-07-20T23:25:12;1016.1;;;16;97
61880;BME280;47817;52.798;27.544;2023-07-20T23:30:54;1016.1;;;15.9;96.9
61880;BME280;47817;52.798;27.544;2023-07-20T23:35:07;1016;;;15.9;96.7
61880;BME280;47817;52.798;27.544;2023-07-20T23:40:26;1016.1;;;15.9;96.5
61880;BME280;47817;52.798;27.544;2023-07-20T23:45:34;1016.1;;;15.8;96.6
61880;BME280;47817;52.798;27.544;2023-07-20T23:50:39;1016.1;;;15.8;96.5
61880;BME280;47817;52.798;27.544;2023-07-20T23:55:07;1016.2;;;15.8;96.2
